sensor_id;sensor_type;location;lat;lon;timestamp;P1;durP1;ratioP1;P2;durP2;ratioP2
60700;SDS011;46541;49.894;10.886;2023-08-24T00:01:32;7.43;;;2.90;;
60700;SDS011;46541;49.894;10.886;2023-08-24T00:03:58;7.90;;;2.92;;
60700;SDS011;46541;49.894;10.886;2023-08-24T00:06:25;3.47;;;2.45;;
60700;SDS011;46541;49.894;10.886;2023-08-24T00:08:53;6.68;;;2.70;;
60700;SDS011;46541;49.894;10.886;2023-08-24T00:11:20;8.50;;;2.50;;
60700;SDS011;46541;49.894;10.886;2023-08-24T00:13:47;3.63;;;2.47;;
60700;SDS011;46541;49.894;10.886;2023-08-24T00:16:18;7.90;;;2.50;;
60700;SDS011;46541;49.894;10.886;2023-08-24T00:18:46;8.10;;;3.40;;
60700;SDS011;46541;49.894;10.886;2023-08-24T00:21:13;5.55;;;2.67;;
60700;SDS011;46541;49.894;10.886;2023-08-24T00:23:45;4.50;;;2.70;;
60700;SDS011;46541;49.894;10.886;2023-08-24T00:26:12;11.15;;;2.72;;
60700;SDS011;46541;49.894;10.886;2023-08-24T00:28:39;11.18;;;2.95;;
60700;SDS011;46541;49.894;10.886;2023-08-24T00:31:06;8.32;;;3.10;;
60700;SDS011;46541;49.894;10.886;2023-08-24T00:33:33;8.02;;;3.17;;
60700;SDS011;46541;49.894;10.886;2023-08-24T00:36:00;5.10;;;2.85;;
60700;SDS011;46541;49.894;10.886;2023-08-24T00:38:28;5.18;;;2.38;;
60700;SDS011;46541;49.894;10.886;2023-08-24T00:40:55;5.47;;;2.70;;
60700;SDS011;46541;49.894;10.886;2023-08-24T00:43:22;8.55;;;2.75;;
60700;SDS011;46541;49.894;10.886;2023-08-24T00:45:50;5.50;;;2.80;;
60700;SDS011;46541;49.894;10.886;2023-08-24T00:48:18;7.20;;;2.50;;
60700;SDS011;46541;49.894;10.886;2023-08-24T00:50:46;4.43;;;2.47;;
60700;SDS011;46541;49.894;10.886;2023-08-24T00:53:13;6.07;;;2.90;;
60700;SDS011;46541;49.894;10.886;2023-08-24T00:55:40;4.55;;;2.85;;
60700;SDS011;46541;49.894;10.886;2023-08-24T00:58:07;6.43;;;2.78;;
60700;SDS011;46541;49.894;10.886;2023-08-24T01:00:36;4.47;;;2.83;;
60700;SDS011;46541;49.894;10.886;2023-08-24T01:03:03;7.10;;;2.92;;
60700;SDS011;46541;49.894;10.886;2023-08-24T01:05:30;11.95;;;3.38;;
60700;SDS011;46541;49.894;10.886;2023-08-24T01:07:57;5.05;;;3.10;;
60700;SDS011;46541;49.894;10.886;2023-08-24T01:10:24;7.50;;;2.90;;
60700;SDS011;46541;49.894;10.886;2023-08-24T01:13:00;6.57;;;3.15;;
60700;SDS011;46541;49.894;10.886;2023-08-24T01:18:14;5.90;;;3.22;;
60700;SDS011;46541;49.894;10.886;2023-08-24T01:20:43;5.05;;;2.70;;
60700;SDS011;46541;49.894;10.886;2023-08-24T01:28:32;6.68;;;3.17;;
60700;SDS011;46541;49.894;10.886;2023-08-24T01:30:59;6.20;;;2.90;;
60700;SDS011;46541;49.894;10.886;2023-08-24T01:33:27;7.03;;;3.15;;
60700;SDS011;46541;49.894;10.886;2023-08-24T01:35:53;9.48;;;3.10;;
60700;SDS011;46541;49.894;10.886;2023-08-24T01:38:20;7.25;;;3.63;;
60700;SDS011;46541;49.894;10.886;2023-08-24T01:43:36;6.50;;;3.72;;
60700;SDS011;46541;49.894;10.886;2023-08-24T01:46:10;8.00;;;3.47;;
60700;SDS011;46541;49.894;10.886;2023-08-24T01:48:41;6.43;;;2.70;;
60700;SDS011;46541;49.894;10.886;2023-08-24T01:51:09;6.97;;;3.33;;
60700;SDS011;46541;49.894;10.886;2023-08-24T01:53:37;5.05;;;3.28;;
60700;SDS011;46541;49.894;10.886;2023-08-24T01:56:11;4.78;;;3.45;;
60700;SDS011;46541;49.894;10.886;2023-08-24T01:58:39;4.70;;;3.28;;
60700;SDS011;46541;49.894;10.886;2023-08-24T02:01:07;4.45;;;3.17;;
60700;SDS011;46541;49.894;10.886;2023-08-24T02:03:35;6.05;;;3.30;;
60700;SDS011;46541;49.894;10.886;2023-08-24T02:06:02;5.95;;;3.13;;
60700;SDS011;46541;49.894;10.886;2023-08-24T02:08:31;5.38;;;3.50;;
60700;SDS011;46541;49.894;10.886;2023-08-24T02:10:57;6.68;;;3.17;;
60700;SDS011;46541;49.894;10.886;2023-08-24T02:13:24;6.25;;;3.90;;
60700;SDS011;46541;49.894;10.886;2023-08-24T02:16:00;5.25;;;3.38;;
60700;SDS011;46541;49.894;10.886;2023-08-24T02:18:28;10.95;;;4.57;;
60700;SDS011;46541;49.894;10.886;2023-08-24T02:20:55;6.55;;;3.47;;
60700;SDS011;46541;49.894;10.886;2023-08-24T02:23:22;4.88;;;3.47;;
60700;SDS011;46541;49.894;10.886;2023-08-24T02:25:48;5.75;;;3.75;;
60700;SDS011;46541;49.894;10.886;2023-08-24T02:28:15;6.35;;;3.65;;
60700;SDS011;46541;49.894;10.886;2023-08-24T02:30:42;7.72;;;3.38;;
60700;SDS011;46541;49.894;10.886;2023-08-24T02:33:09;7.03;;;3.97;;
60700;SDS011;46541;49.894;10.886;2023-08-24T02:35:36;10.45;;;3.70;;
60700;SDS011;46541;49.894;10.886;2023-08-24T02:38:03;4.47;;;3.65;;
60700;SDS011;46541;49.894;10.886;2023-08-24T02:40:29;4.78;;;3.60;;
60700;SDS011;46541;49.894;10.886;2023-08-24T02:42:56;7.43;;;3.88;;
60700;SDS011;46541;49.894;10.886;2023-08-24T02:45:23;8.68;;;4.00;;
60700;SDS011;46541;49.894;10.886;2023-08-24T02:47:50;6.68;;;4.10;;
60700;SDS011;46541;49.894;10.886;2023-08-24T02:50:17;5.40;;;3.80;;
60700;SDS011;46541;49.894;10.886;2023-08-24T02:52:44;6.03;;;3.72;;
60700;SDS011;46541;49.894;10.886;2023-08-24T02:55:11;5.93;;;4.00;;
60700;SDS011;46541;49.894;10.886;2023-08-24T02:57:38;9.20;;;4.18;;
60700;SDS011;46541;49.894;10.886;2023-08-24T03:00:05;5.97;;;4.57;;
60700;SDS011;46541;49.894;10.886;2023-08-24T03:02:33;6.47;;;4.30;;
60700;SDS011;46541;49.894;10.886;2023-08-24T03:05:00;12.45;;;3.97;;
60700;SDS011;46541;49.894;10.886;2023-08-24T03:07:27;5.13;;;4.05;;
60700;SDS011;46541;49.894;10.886;2023-08-24T03:09:54;7.30;;;4.20;;
60700;SDS011;46541;49.894;10.886;2023-08-24T03:12:20;6.97;;;3.97;;
60700;SDS011;46541;49.894;10.886;2023-08-24T03:14:50;5.15;;;3.63;;
60700;SDS011;46541;49.894;10.886;2023-08-24T03:17:19;7.32;;;3.70;;
60700;SDS011;46541;49.894;10.886;2023-08-24T03:19:45;12.05;;;3.80;;
60700;SDS011;46541;49.894;10.886;2023-08-24T03:22:12;6.10;;;4.05;;
60700;SDS011;46541;49.894;10.886;2023-08-24T03:24:39;8.63;;;4.20;;
60700;SDS011;46541;49.894;10.886;2023-08-24T03:27:05;10.30;;;4.30;;
60700;SDS011;46541;49.894;10.886;2023-08-24T03:29:32;8.85;;;4.03;;
60700;SDS011;46541;49.894;10.886;2023-08-24T03:31:59;8.40;;;4.25;;
60700;SDS011;46541;49.894;10.886;2023-08-24T03:34:26;6.95;;;4.65;;
60700;SDS011;46541;49.894;10.886;2023-08-24T03:36:53;7.97;;;4.40;;
60700;SDS011;46541;49.894;10.886;2023-08-24T03:39:20;6.40;;;4.68;;
60700;SDS011;46541;49.894;10.886;2023-08-24T03:41:47;6.65;;;4.97;;
60700;SDS011;46541;49.894;10.886;2023-08-24T03:44:13;7.18;;;4.70;;
60700;SDS011;46541;49.894;10.886;2023-08-24T03:46:40;3.92;;;3.22;;
60700;SDS011;46541;49.894;10.886;2023-08-24T03:49:07;5.40;;;3.58;;
60700;SDS011;46541;49.894;10.886;2023-08-24T03:51:34;4.78;;;3.50;;
60700;SDS011;46541;49.894;10.886;2023-08-24T03:54:01;5.28;;;2.92;;
60700;SDS011;46541;49.894;10.886;2023-08-24T03:56:29;6.70;;;3.40;;
60700;SDS011;46541;49.894;10.886;2023-08-24T03:58:56;7.13;;;3.92;;
60700;SDS011;46541;49.894;10.886;2023-08-24T04:01:22;10.98;;;4.97;;
60700;SDS011;46541;49.894;10.886;2023-08-24T04:03:49;5.68;;;3.67;;
60700;SDS011;46541;49.894;10.886;2023-08-24T04:06:17;7.82;;;3.75;;
60700;SDS011;46541;49.894;10.886;2023-08-24T04:08:47;5.53;;;3.53;;
60700;SDS011;46541;49.894;10.886;2023-08-24T04:11:14;7.45;;;4.63;;
60700;SDS011;46541;49.894;10.886;2023-08-24T04:13:41;5.45;;;3.60;;
60700;SDS011;46541;49.894;10.886;2023-08-24T04:16:07;7.25;;;4.38;;
60700;SDS011;46541;49.894;10.886;2023-08-24T04:18:34;5.82;;;3.10;;
60700;SDS011;46541;49.894;10.886;2023-08-24T04:21:01;6.07;;;3.38;;
60700;SDS011;46541;49.894;10.886;2023-08-24T04:23:28;5.57;;;4.10;;
60700;SDS011;46541;49.894;10.886;2023-08-24T04:25:54;4.13;;;3.30;;
60700;SDS011;46541;49.894;10.886;2023-08-24T04:28:21;8.48;;;3.85;;
60700;SDS011;46541;49.894;10.886;2023-08-24T04:30:48;7.07;;;4.18;;
60700;SDS011;46541;49.894;10.886;2023-08-24T04:33:16;5.97;;;3.70;;
60700;SDS011;46541;49.894;10.886;2023-08-24T04:35:45;5.38;;;4.10;;
60700;SDS011;46541;49.894;10.886;2023-08-24T04:38:15;5.75;;;3.72;;
60700;SDS011;46541;49.894;10.886;2023-08-24T04:40:52;6.60;;;3.90;;
60700;SDS011;46541;49.894;10.886;2023-08-24T04:43:21;8.95;;;3.90;;
60700;SDS011;46541;49.894;10.886;2023-08-24T04:45:49;4.47;;;3.95;;
60700;SDS011;46541;49.894;10.886;2023-08-24T04:48:19;9.98;;;4.05;;
60700;SDS011;46541;49.894;10.886;2023-08-24T04:50:47;7.72;;;4.30;;
60700;SDS011;46541;49.894;10.886;2023-08-24T04:53:16;6.47;;;4.10;;
60700;SDS011;46541;49.894;10.886;2023-08-24T04:55:44;6.45;;;4.47;;
60700;SDS011;46541;49.894;10.886;2023-08-24T04:58:11;7.88;;;4.47;;
60700;SDS011;46541;49.894;10.886;2023-08-24T05:00:39;12.80;;;4.38;;
60700;SDS011;46541;49.894;10.886;2023-08-24T05:03:06;6.10;;;4.32;;
60700;SDS011;46541;49.894;10.886;2023-08-24T05:05:35;8.38;;;4.38;;
60700;SDS011;46541;49.894;10.886;2023-08-24T05:08:03;4.78;;;4.13;;
60700;SDS011;46541;49.894;10.886;2023-08-24T05:13:05;7.82;;;4.95;;
60700;SDS011;46541;49.894;10.886;2023-08-24T05:15:32;7.97;;;4.43;;
60700;SDS011;46541;49.894;10.886;2023-08-24T05:17:59;8.73;;;5.00;;
60700;SDS011;46541;49.894;10.886;2023-08-24T05:20:26;10.20;;;5.18;;
60700;SDS011;46541;49.894;10.886;2023-08-24T05:22:53;8.25;;;4.93;;
60700;SDS011;46541;49.894;10.886;2023-08-24T05:25:24;11.00;;;4.72;;
60700;SDS011;46541;49.894;10.886;2023-08-24T05:27:50;12.00;;;4.78;;
60700;SDS011;46541;49.894;10.886;2023-08-24T05:30:18;8.30;;;4.88;;
60700;SDS011;46541;49.894;10.886;2023-08-24T05:32:45;10.30;;;4.40;;
60700;SDS011;46541;49.894;10.886;2023-08-24T05:35:12;6.32;;;4.57;;
60700;SDS011;46541;49.894;10.886;2023-08-24T05:37:38;10.88;;;5.53;;
60700;SDS011;46541;49.894;10.886;2023-08-24T05:40:05;14.15;;;6.00;;
60700;SDS011;46541;49.894;10.886;2023-08-24T05:42:32;9.55;;;5.68;;
60700;SDS011;46541;49.894;10.886;2023-08-24T05:44:59;7.68;;;5.85;;
60700;SDS011;46541;49.894;10.886;2023-08-24T05:47:26;11.02;;;4.97;;
60700;SDS011;46541;49.894;10.886;2023-08-24T05:49:53;8.35;;;5.53;;
60700;SDS011;46541;49.894;10.886;2023-08-24T05:52:20;15.10;;;5.28;;
60700;SDS011;46541;49.894;10.886;2023-08-24T05:54:46;12.98;;;5.90;;
60700;SDS011;46541;49.894;10.886;2023-08-24T05:57:13;11.52;;;6.53;;
60700;SDS011;46541;49.894;10.886;2023-08-24T05:59:40;12.93;;;5.65;;
60700;SDS011;46541;49.894;10.886;2023-08-24T06:02:07;11.88;;;5.13;;
60700;SDS011;46541;49.894;10.886;2023-08-24T06:04:33;9.23;;;5.30;;
60700;SDS011;46541;49.894;10.886;2023-08-24T06:07:00;7.72;;;5.05;;
60700;SDS011;46541;49.894;10.886;2023-08-24T06:09:27;12.50;;;4.68;;
60700;SDS011;46541;49.894;10.886;2023-08-24T06:11:54;11.85;;;4.68;;
60700;SDS011;46541;49.894;10.886;2023-08-24T06:14:20;9.25;;;5.10;;
60700;SDS011;46541;49.894;10.886;2023-08-24T06:16:47;10.48;;;5.05;;
60700;SDS011;46541;49.894;10.886;2023-08-24T06:19:15;11.35;;;5.55;;
60700;SDS011;46541;49.894;10.886;2023-08-24T06:21:42;8.65;;;5.65;;
60700;SDS011;46541;49.894;10.886;2023-08-24T06:24:08;11.18;;;5.00;;
60700;SDS011;46541;49.894;10.886;2023-08-24T06:26:36;9.02;;;4.90;;
60700;SDS011;46541;49.894;10.886;2023-08-24T06:29:02;8.25;;;4.93;;
60700;SDS011;46541;49.894;10.886;2023-08-24T06:31:29;8.20;;;4.95;;
60700;SDS011;46541;49.894;10.886;2023-08-24T06:33:57;10.05;;;4.88;;
60700;SDS011;46541;49.894;10.886;2023-08-24T06:36:24;10.23;;;4.80;;
60700;SDS011;46541;49.894;10.886;2023-08-24T06:38:51;11.40;;;5.18;;
60700;SDS011;46541;49.894;10.886;2023-08-24T06:41:19;8.73;;;4.43;;
60700;SDS011;46541;49.894;10.886;2023-08-24T06:43:46;8.38;;;5.18;;
60700;SDS011;46541;49.894;10.886;2023-08-24T06:46:13;10.68;;;5.50;;
60700;SDS011;46541;49.894;10.886;2023-08-24T06:48:40;10.85;;;6.43;;
60700;SDS011;46541;49.894;10.886;2023-08-24T06:51:10;11.30;;;5.32;;
60700;SDS011;46541;49.894;10.886;2023-08-24T06:53:38;9.98;;;5.18;;
60700;SDS011;46541;49.894;10.886;2023-08-24T06:56:04;9.55;;;4.90;;
60700;SDS011;46541;49.894;10.886;2023-08-24T06:58:31;13.05;;;5.07;;
60700;SDS011;46541;49.894;10.886;2023-08-24T07:00:58;9.95;;;5.32;;
60700;SDS011;46541;49.894;10.886;2023-08-24T07:03:24;18.10;;;5.13;;
60700;SDS011;46541;49.894;10.886;2023-08-24T07:05:51;10.18;;;5.43;;
60700;SDS011;46541;49.894;10.886;2023-08-24T07:08:18;10.98;;;5.07;;
60700;SDS011;46541;49.894;10.886;2023-08-24T07:10:45;9.60;;;4.53;;
60700;SDS011;46541;49.894;10.886;2023-08-24T07:13:12;10.73;;;5.32;;
60700;SDS011;46541;49.894;10.886;2023-08-24T07:15:38;14.02;;;5.32;;
60700;SDS011;46541;49.894;10.886;2023-08-24T07:18:06;9.88;;;4.72;;
60700;SDS011;46541;49.894;10.886;2023-08-24T07:20:34;8.00;;;4.57;;
60700;SDS011;46541;49.894;10.886;2023-08-24T07:23:01;10.32;;;4.32;;
60700;SDS011;46541;49.894;10.886;2023-08-24T07:25:28;7.45;;;4.07;;
60700;SDS011;46541;49.894;10.886;2023-08-24T07:27:55;9.20;;;4.63;;
60700;SDS011;46541;49.894;10.886;2023-08-24T07:30:25;9.63;;;4.22;;
60700;SDS011;46541;49.894;10.886;2023-08-24T07:33:00;9.10;;;4.63;;
60700;SDS011;46541;49.894;10.886;2023-08-24T07:35:29;11.48;;;4.68;;
60700;SDS011;46541;49.894;10.886;2023-08-24T07:37:56;12.30;;;4.72;;
60700;SDS011;46541;49.894;10.886;2023-08-24T07:40:23;13.35;;;4.30;;
60700;SDS011;46541;49.894;10.886;2023-08-24T07:42:50;10.18;;;4.40;;
60700;SDS011;46541;49.894;10.886;2023-08-24T07:45:20;10.85;;;4.18;;
60700;SDS011;46541;49.894;10.886;2023-08-24T07:47:47;10.43;;;4.13;;
60700;SDS011;46541;49.894;10.886;2023-08-24T07:50:15;10.02;;;3.38;;
60700;SDS011;46541;49.894;10.886;2023-08-24T07:52:42;7.20;;;4.28;;
60700;SDS011;46541;49.894;10.886;2023-08-24T07:55:09;5.22;;;4.18;;
60700;SDS011;46541;49.894;10.886;2023-08-24T07:57:36;7.28;;;4.03;;
60700;SDS011;46541;49.894;10.886;2023-08-24T08:00:03;7.97;;;3.80;;
60700;SDS011;46541;49.894;10.886;2023-08-24T08:02:35;5.07;;;4.10;;
60700;SDS011;46541;49.894;10.886;2023-08-24T08:05:03;8.85;;;4.40;;
60700;SDS011;46541;49.894;10.886;2023-08-24T08:07:33;12.55;;;5.20;;
60700;SDS011;46541;49.894;10.886;2023-08-24T08:10:00;7.05;;;4.10;;
60700;SDS011;46541;49.894;10.886;2023-08-24T08:12:27;8.27;;;3.60;;
60700;SDS011;46541;49.894;10.886;2023-08-24T08:14:55;4.75;;;3.95;;
60700;SDS011;46541;49.894;10.886;2023-08-24T08:17:22;7.45;;;4.40;;
60700;SDS011;46541;49.894;10.886;2023-08-24T08:19:53;10.70;;;3.90;;
60700;SDS011;46541;49.894;10.886;2023-08-24T08:22:21;6.50;;;3.63;;
60700;SDS011;46541;49.894;10.886;2023-08-24T08:24:48;10.45;;;3.70;;
60700;SDS011;46541;49.894;10.886;2023-08-24T08:27:16;8.45;;;4.03;;
60700;SDS011;46541;49.894;10.886;2023-08-24T08:29:43;6.15;;;4.43;;
60700;SDS011;46541;49.894;10.886;2023-08-24T08:32:09;8.63;;;3.85;;
60700;SDS011;46541;49.894;10.886;2023-08-24T08:34:38;6.20;;;3.80;;
60700;SDS011;46541;49.894;10.886;2023-08-24T08:37:05;5.72;;;3.72;;
60700;SDS011;46541;49.894;10.886;2023-08-24T08:39:32;7.88;;;3.78;;
60700;SDS011;46541;49.894;10.886;2023-08-24T08:41:59;7.32;;;3.65;;
60700;SDS011;46541;49.894;10.886;2023-08-24T08:44:30;8.52;;;3.70;;
60700;SDS011;46541;49.894;10.886;2023-08-24T08:46:58;4.78;;;3.38;;
60700;SDS011;46541;49.894;10.886;2023-08-24T08:49:25;6.85;;;3.38;;
60700;SDS011;46541;49.894;10.886;2023-08-24T08:51:52;11.75;;;3.53;;
60700;SDS011;46541;49.894;10.886;2023-08-24T08:54:19;7.40;;;4.00;;
60700;SDS011;46541;49.894;10.886;2023-08-24T08:56:46;6.95;;;3.03;;
60700;SDS011;46541;49.894;10.886;2023-08-24T08:59:13;7.75;;;4.00;;
60700;SDS011;46541;49.894;10.886;2023-08-24T09:01:41;11.85;;;5.75;;
60700;SDS011;46541;49.894;10.886;2023-08-24T09:04:10;6.82;;;4.80;;
60700;SDS011;46541;49.894;10.886;2023-08-24T09:06:37;6.40;;;3.83;;
60700;SDS011;46541;49.894;10.886;2023-08-24T09:09:05;6.38;;;3.30;;
60700;SDS011;46541;49.894;10.886;2023-08-24T09:11:32;9.90;;;4.22;;
60700;SDS011;46541;49.894;10.886;2023-08-24T09:13:59;8.73;;;3.25;;
60700;SDS011;46541;49.894;10.886;2023-08-24T09:16:28;10.68;;;3.80;;
60700;SDS011;46541;49.894;10.886;2023-08-24T09:18:56;12.68;;;2.97;;
60700;SDS011;46541;49.894;10.886;2023-08-24T09:21:23;6.82;;;2.60;;
60700;SDS011;46541;49.894;10.886;2023-08-24T09:23:54;9.23;;;2.92;;
60700;SDS011;46541;49.894;10.886;2023-08-24T09:26:28;4.75;;;2.97;;
60700;SDS011;46541;49.894;10.886;2023-08-24T09:28:56;9.23;;;3.22;;
60700;SDS011;46541;49.894;10.886;2023-08-24T09:31:24;10.20;;;3.30;;
60700;SDS011;46541;49.894;10.886;2023-08-24T09:34:03;6.07;;;3.38;;
60700;SDS011;46541;49.894;10.886;2023-08-24T09:36:33;11.18;;;3.30;;
60700;SDS011;46541;49.894;10.886;2023-08-24T09:39:02;10.93;;;3.75;;
60700;SDS011;46541;49.894;10.886;2023-08-24T09:41:41;10.05;;;3.10;;
60700;SDS011;46541;49.894;10.886;2023-08-24T09:44:12;6.15;;;3.13;;
60700;SDS011;46541;49.894;10.886;2023-08-24T09:46:39;9.88;;;3.22;;
60700;SDS011;46541;49.894;10.886;2023-08-24T09:49:07;6.80;;;2.80;;
60700;SDS011;46541;49.894;10.886;2023-08-24T09:51:35;3.47;;;2.70;;
60700;SDS011;46541;49.894;10.886;2023-08-24T09:54:07;7.03;;;2.80;;
60700;SDS011;46541;49.894;10.886;2023-08-24T09:56:36;4.00;;;2.85;;
60700;SDS011;46541;49.894;10.886;2023-08-24T09:59:14;5.70;;;2.63;;
60700;SDS011;46541;49.894;10.886;2023-08-24T10:01:48;12.07;;;2.47;;
60700;SDS011;46541;49.894;10.886;2023-08-24T10:04:18;5.15;;;2.80;;
60700;SDS011;46541;49.894;10.886;2023-08-24T10:06:49;3.55;;;2.28;;
60700;SDS011;46541;49.894;10.886;2023-08-24T10:09:22;6.05;;;2.30;;
60700;SDS011;46541;49.894;10.886;2023-08-24T10:11:58;4.45;;;2.17;;
60700;SDS011;46541;49.894;10.886;2023-08-24T10:14:27;4.40;;;2.17;;
60700;SDS011;46541;49.894;10.886;2023-08-24T10:16:58;5.00;;;2.30;;
60700;SDS011;46541;49.894;10.886;2023-08-24T10:19:26;7.28;;;2.25;;
60700;SDS011;46541;49.894;10.886;2023-08-24T10:21:54;7.45;;;2.72;;
60700;SDS011;46541;49.894;10.886;2023-08-24T10:24:23;8.90;;;6.00;;
60700;SDS011;46541;49.894;10.886;2023-08-24T10:26:50;5.90;;;2.92;;
60700;SDS011;46541;49.894;10.886;2023-08-24T10:29:17;6.50;;;2.92;;
60700;SDS011;46541;49.894;10.886;2023-08-24T10:31:46;5.20;;;2.90;;
60700;SDS011;46541;49.894;10.886;2023-08-24T10:34:15;5.20;;;3.03;;
60700;SDS011;46541;49.894;10.886;2023-08-24T10:36:43;8.00;;;3.95;;
60700;SDS011;46541;49.894;10.886;2023-08-24T10:39:13;5.53;;;3.47;;
60700;SDS011;46541;49.894;10.886;2023-08-24T10:41:47;5.60;;;3.00;;
60700;SDS011;46541;49.894;10.886;2023-08-24T10:44:34;7.00;;;3.80;;
60700;SDS011;46541;49.894;10.886;2023-08-24T10:52:23;7.35;;;3.42;;
60700;SDS011;46541;49.894;10.886;2023-08-24T10:54:52;7.72;;;3.47;;
60700;SDS011;46541;49.894;10.886;2023-08-24T10:57:20;5.32;;;2.90;;
60700;SDS011;46541;49.894;10.886;2023-08-24T10:59:57;10.73;;;4.55;;
60700;SDS011;46541;49.894;10.886;2023-08-24T11:07:55;7.25;;;4.63;;
60700;SDS011;46541;49.894;10.886;2023-08-24T11:10:37;18.65;;;7.70;;
60700;SDS011;46541;49.894;10.886;2023-08-24T11:13:16;9.30;;;4.22;;
60700;SDS011;46541;49.894;10.886;2023-08-24T11:15:46;12.35;;;4.70;;
60700;SDS011;46541;49.894;10.886;2023-08-24T11:18:21;11.48;;;6.60;;
60700;SDS011;46541;49.894;10.886;2023-08-24T11:20:57;6.82;;;3.85;;
60700;SDS011;46541;49.894;10.886;2023-08-24T11:23:28;8.15;;;4.50;;
60700;SDS011;46541;49.894;10.886;2023-08-24T11:25:57;8.13;;;4.28;;
60700;SDS011;46541;49.894;10.886;2023-08-24T11:28:26;9.20;;;4.03;;
60700;SDS011;46541;49.894;10.886;2023-08-24T11:30:55;9.90;;;5.10;;
60700;SDS011;46541;49.894;10.886;2023-08-24T11:33:27;7.05;;;5.20;;
60700;SDS011;46541;49.894;10.886;2023-08-24T11:35:57;8.95;;;5.07;;
60700;SDS011;46541;49.894;10.886;2023-08-24T11:38:34;9.20;;;4.43;;
60700;SDS011;46541;49.894;10.886;2023-08-24T11:41:38;7.40;;;5.93;;
60700;SDS011;46541;49.894;10.886;2023-08-24T11:44:00;9.02;;;4.45;;
60700;SDS011;46541;49.894;10.886;2023-08-24T11:46:44;7.82;;;4.88;;
60700;SDS011;46541;49.894;10.886;2023-08-24T11:49:10;6.50;;;4.20;;
60700;SDS011;46541;49.894;10.886;2023-08-24T11:51:37;7.18;;;3.30;;
60700;SDS011;46541;49.894;10.886;2023-08-24T11:54:09;6.30;;;3.00;;
60700;SDS011;46541;49.894;10.886;2023-08-24T11:56:42;9.45;;;4.00;;
60700;SDS011;46541;49.894;10.886;2023-08-24T11:59:12;5.50;;;2.95;;
60700;SDS011;46541;49.894;10.886;2023-08-24T12:01:40;6.15;;;4.22;;
60700;SDS011;46541;49.894;10.886;2023-08-24T12:04:08;4.28;;;3.05;;
60700;SDS011;46541;49.894;10.886;2023-08-24T12:06:35;8.82;;;4.53;;
60700;SDS011;46541;49.894;10.886;2023-08-24T12:09:04;7.40;;;3.25;;
60700;SDS011;46541;49.894;10.886;2023-08-24T12:11:38;5.57;;;3.10;;
60700;SDS011;46541;49.894;10.886;2023-08-24T12:14:05;5.93;;;3.88;;
60700;SDS011;46541;49.894;10.886;2023-08-24T12:16:36;4.63;;;3.17;;
60700;SDS011;46541;49.894;10.886;2023-08-24T12:19:06;3.42;;;2.90;;
60700;SDS011;46541;49.894;10.886;2023-08-24T12:21:33;7.88;;;3.83;;
60700;SDS011;46541;49.894;10.886;2023-08-24T12:24:06;4.47;;;2.85;;
60700;SDS011;46541;49.894;10.886;2023-08-24T12:26:35;5.17;;;3.47;;
60700;SDS011;46541;49.894;10.886;2023-08-24T12:29:03;7.13;;;3.08;;
60700;SDS011;46541;49.894;10.886;2023-08-24T12:31:34;6.90;;;3.45;;
60700;SDS011;46541;49.894;10.886;2023-08-24T12:34:03;5.13;;;3.50;;
60700;SDS011;46541;49.894;10.886;2023-08-24T12:36:33;6.40;;;4.82;;
60700;SDS011;46541;49.894;10.886;2023-08-24T12:39:02;5.00;;;3.90;;
60700;SDS011;46541;49.894;10.886;2023-08-24T12:41:34;7.82;;;3.03;;
60700;SDS011;46541;49.894;10.886;2023-08-24T12:44:00;7.07;;;3.33;;
60700;SDS011;46541;49.894;10.886;2023-08-24T12:46:32;8.00;;;3.38;;
60700;SDS011;46541;49.894;10.886;2023-08-24T12:48:59;7.22;;;3.22;;
60700;SDS011;46541;49.894;10.886;2023-08-24T12:51:27;5.28;;;3.03;;
60700;SDS011;46541;49.894;10.886;2023-08-24T12:53:54;3.65;;;3.00;;
60700;SDS011;46541;49.894;10.886;2023-08-24T12:56:20;7.07;;;3.35;;
60700;SDS011;46541;49.894;10.886;2023-08-24T12:58:47;6.28;;;2.80;;
60700;SDS011;46541;49.894;10.886;2023-08-24T13:01:14;7.65;;;3.35;;
60700;SDS011;46541;49.894;10.886;2023-08-24T13:03:41;8.63;;;3.55;;
60700;SDS011;46541;49.894;10.886;2023-08-24T13:06:08;7.57;;;3.80;;
60700;SDS011;46541;49.894;10.886;2023-08-24T13:08:49;9.68;;;3.65;;
60700;SDS011;46541;49.894;10.886;2023-08-24T13:11:17;3.22;;;2.90;;
60700;SDS011;46541;49.894;10.886;2023-08-24T13:13:43;7.75;;;3.25;;
60700;SDS011;46541;49.894;10.886;2023-08-24T13:16:12;8.20;;;3.38;;
60700;SDS011;46541;49.894;10.886;2023-08-24T13:18:39;8.88;;;2.92;;
60700;SDS011;46541;49.894;10.886;2023-08-24T13:21:05;8.00;;;3.75;;
60700;SDS011;46541;49.894;10.886;2023-08-24T13:23:32;9.60;;;4.53;;
60700;SDS011;46541;49.894;10.886;2023-08-24T13:26:00;7.25;;;3.70;;
60700;SDS011;46541;49.894;10.886;2023-08-24T13:28:27;8.30;;;3.95;;
60700;SDS011;46541;49.894;10.886;2023-08-24T13:30:55;4.70;;;3.22;;
60700;SDS011;46541;49.894;10.886;2023-08-24T13:33:22;10.25;;;3.92;;
60700;SDS011;46541;49.894;10.886;2023-08-24T13:35:49;15.15;;;3.38;;
60700;SDS011;46541;49.894;10.886;2023-08-24T13:38:16;5.93;;;3.08;;
60700;SDS011;46541;49.894;10.886;2023-08-24T13:40:42;5.53;;;3.15;;
60700;SDS011;46541;49.894;10.886;2023-08-24T13:43:12;6.90;;;2.97;;
60700;SDS011;46541;49.894;10.886;2023-08-24T13:45:39;7.32;;;2.53;;
60700;SDS011;46541;49.894;10.886;2023-08-24T13:48:06;13.40;;;3.42;;
60700;SDS011;46541;49.894;10.886;2023-08-24T13:50:34;6.20;;;3.38;;
60700;SDS011;46541;49.894;10.886;2023-08-24T13:53:01;9.13;;;3.85;;
60700;SDS011;46541;49.894;10.886;2023-08-24T13:55:28;7.45;;;3.22;;
60700;SDS011;46541;49.894;10.886;2023-08-24T13:57:55;3.80;;;3.10;;
60700;SDS011;46541;49.894;10.886;2023-08-24T14:00:22;5.07;;;3.42;;
60700;SDS011;46541;49.894;10.886;2023-08-24T14:02:49;5.82;;;3.03;;
60700;SDS011;46541;49.894;10.886;2023-08-24T14:05:17;12.00;;;3.60;;
60700;SDS011;46541;49.894;10.886;2023-08-24T14:07:43;4.35;;;3.28;;
60700;SDS011;46541;49.894;10.886;2023-08-24T14:10:10;10.57;;;3.97;;
60700;SDS011;46541;49.894;10.886;2023-08-24T14:12:38;7.65;;;4.07;;
60700;SDS011;46541;49.894;10.886;2023-08-24T14:15:04;5.88;;;4.47;;
60700;SDS011;46541;49.894;10.886;2023-08-24T14:17:32;7.65;;;4.85;;
60700;SDS011;46541;49.894;10.886;2023-08-24T14:19:59;6.65;;;3.88;;
60700;SDS011;46541;49.894;10.886;2023-08-24T14:22:26;7.65;;;5.18;;
60700;SDS011;46541;49.894;10.886;2023-08-24T14:24:53;8.20;;;4.85;;
60700;SDS011;46541;49.894;10.886;2023-08-24T14:27:20;6.95;;;4.00;;
60700;SDS011;46541;49.894;10.886;2023-08-24T14:29:47;9.75;;;5.85;;
60700;SDS011;46541;49.894;10.886;2023-08-24T14:32:13;11.07;;;4.57;;
60700;SDS011;46541;49.894;10.886;2023-08-24T14:34:40;8.63;;;4.70;;
60700;SDS011;46541;49.894;10.886;2023-08-24T14:37:07;8.65;;;3.42;;
60700;SDS011;46541;49.894;10.886;2023-08-24T14:39:34;4.65;;;3.78;;
60700;SDS011;46541;49.894;10.886;2023-08-24T14:42:01;11.95;;;4.05;;
60700;SDS011;46541;49.894;10.886;2023-08-24T14:44:29;7.10;;;3.63;;
60700;SDS011;46541;49.894;10.886;2023-08-24T14:46:56;6.60;;;3.72;;
60700;SDS011;46541;49.894;10.886;2023-08-24T14:49:23;7.57;;;5.00;;
60700;SDS011;46541;49.894;10.886;2023-08-24T14:51:50;6.45;;;3.95;;
60700;SDS011;46541;49.894;10.886;2023-08-24T14:54:16;6.40;;;4.95;;
60700;SDS011;46541;49.894;10.886;2023-08-24T14:56:43;5.40;;;3.33;;
60700;SDS011;46541;49.894;10.886;2023-08-24T14:59:10;7.97;;;5.07;;
60700;SDS011;46541;49.894;10.886;2023-08-24T15:01:37;9.35;;;4.70;;